Sparta, WI

12:02 PM CDT on July 28, 2016 (GMT -0500)
Sparta-Fort McCoy | | Change Station

Elev 837 ft 43.96 °N, 90.74 °W | Updated 7 minutes ago

Overcast
Overcast
66 °F
Feels Like 66 °F
N
7
Wind Variable Wind from NE

Today
High -- | Low -- °F
--% Chance of Precip.
Yesterday
High -- | Low -- °F
Precip. -- in
Pressure 29.97 in
Visibility 10.0 miles
Clouds Overcast 700 ft
Dew Point 64 °F
Humidity 94%
Rainfall 0.11 in
Snow Depth Not available.
5:47 AM 8:30 PM
Waning Crescent, 30% visible
METAR KCMY 281655Z AUTO 05006KT 10SM OVC007 19/18 A2997 RMK AO2 LTG DSNT S T01870177
Pressure 29.97 in
Visibility 10.0 miles
Clouds Overcast 700 ft
Dew Point 64 °F
Humidity 94%
Rainfall 0.11 in
Snow Depth Not available.
5:47 AM 8:30 PM
Waning Crescent, 30% visible
METAR KCMY 281655Z AUTO 05006KT 10SM OVC007 19/18 A2997 RMK AO2 LTG DSNT S T01870177

10-Day Weather Forecast

Almanac

Astronomy

Jul. 28, 2016 Rise Set
Actual Time
Civil Twilight
Nautical Twilight
Astronomical Twilight
Moon
Length of Visible Light
Length of Day
Tomorrow will be .
, % of the Moon is Illuminated

Today's Extremes

State Highs State Lows

Community

WunderPhotos

Upload Photos

1,928,155 photos uploaded!

WunderBlog® & News

Nearby

Air Quality

  Air Quality AQ Index Pollutant
Not available.

Snow Depth

Station Depth Elevation

Earthquake Activity

City Distance Mag. Time & Date
Minimum magnitude displayed is 2.5.

Coastal Water Temperatures

Place Temperature

Stations

Nearby Weather Stations

Station Location Temp. Windchill Dew Point Humidity Wind Precip. Elev Updated Type
                   

Watches & Warnings

There are currently no watches in effect.